createdAt,value
2023-01-11T00:04:02.608Z,101232.99
2023-01-11T00:09:09.736Z,101226.95
2023-01-11T00:14:17.279Z,101223.23
2023-01-11T00:19:24.690Z,101223.42
2023-01-11T00:24:31.893Z,101219.66
2023-01-11T00:29:39.090Z,101222.77
2023-01-11T00:34:46.217Z,101223.48
2023-01-11T00:39:53.653Z,101219.06
2023-01-11T00:45:18.517Z,101221.34
2023-01-11T00:50:27.484Z,101224.34
2023-01-11T00:55:35.243Z,101222.67
2023-01-11T01:00:42.528Z,101222.35
2023-01-11T01:05:49.654Z,101226.50
2023-01-11T01:10:56.808Z,101232.83
2023-01-11T01:16:04.280Z,101235.33
2023-01-11T01:21:11.364Z,101230.94
2023-01-11T01:26:18.469Z,101234.30
2023-01-11T01:31:25.851Z,101222.58
2023-01-11T01:36:33.138Z,101223.31
2023-01-11T01:41:40.989Z,101219.91
2023-01-11T01:46:48.121Z,101212.55
2023-01-11T01:51:59.067Z,101207.88
2023-01-11T01:57:11.491Z,101208.77
2023-01-11T02:02:18.996Z,101207.66
2023-01-11T02:07:32.276Z,101194.59
2023-01-11T02:12:43.217Z,101187.30
2023-01-11T02:17:50.459Z,101187.19
2023-01-11T02:23:31.556Z,101185.58
2023-01-11T02:28:42.786Z,101177.10
2023-01-11T02:33:58.067Z,101177.08
2023-01-11T02:39:14.932Z,101176.50
2023-01-11T02:44:45.289Z,101173.72
2023-01-11T02:49:57.983Z,101170.14
2023-01-11T02:55:07.937Z,101159.87
2023-01-11T03:00:18.275Z,101154.28
2023-01-11T03:05:25.726Z,101150.76
2023-01-11T03:10:41.647Z,101146.76
2023-01-11T03:16:18.398Z,101135.39
2023-01-11T03:21:48.417Z,101128.48
2023-01-11T03:27:10.297Z,101134.02
2023-01-11T03:32:26.077Z,101124.02
2023-01-11T03:37:39.318Z,101115.89
2023-01-11T03:43:08.569Z,101113.61
2023-01-11T03:48:19.545Z,101109.02
2023-01-11T03:53:30.844Z,101109.92
2023-01-11T03:58:38.290Z,101106.66
2023-01-11T04:03:45.696Z,101096.72
2023-01-11T04:08:52.944Z,101092.12
2023-01-11T04:14:01.117Z,101082.84
2023-01-11T04:19:08.268Z,101076.94
2023-01-11T04:24:18.670Z,101070.84
2023-01-11T04:29:25.894Z,101065.35
2023-01-11T04:34:33.056Z,101056.38
2023-01-11T04:39:40.306Z,101050.59
2023-01-11T04:44:48.224Z,101050.77
2023-01-11T04:49:54.147Z,101050.71
2023-01-11T04:55:01.297Z,101048.96
2023-01-11T05:00:11.244Z,101040.15
2023-01-11T05:05:18.553Z,101031.33
2023-01-11T05:10:25.794Z,101025.00
2023-01-11T05:15:32.959Z,101019.09
2023-01-11T05:20:40.287Z,101008.06
2023-01-11T05:25:48.777Z,101001.63
2023-01-11T05:30:56.245Z,101003.17
2023-01-11T05:36:06.059Z,100996.88
2023-01-11T05:41:13.739Z,101002.27
2023-01-11T05:46:21.216Z,101001.06
2023-01-11T05:51:30.742Z,100997.23
2023-01-11T05:56:38.085Z,100995.11
2023-01-11T06:01:45.885Z,100993.68
2023-01-11T06:06:53.314Z,100991.33
2023-01-11T06:12:00.603Z,100985.62
2023-01-11T06:17:07.814Z,100983.64
2023-01-11T06:22:14.929Z,100975.31
2023-01-11T06:27:22.236Z,100971.23
2023-01-11T06:32:30.280Z,100972.38
2023-01-11T06:37:35.916Z,100964.79
2023-01-11T06:42:43.156Z,100959.88
2023-01-11T06:47:50.658Z,100965.20
2023-01-11T06:52:58.886Z,100966.77
2023-01-11T06:58:06.225Z,100955.98
2023-01-11T07:03:14.931Z,100955.27
2023-01-11T07:08:22.552Z,100955.00
2023-01-11T07:13:29.790Z,100946.41
2023-01-11T07:18:37.575Z,100939.19
2023-01-11T07:23:44.786Z,100937.26
2023-01-11T07:28:51.975Z,100940.95
2023-01-11T07:33:59.079Z,100943.18
2023-01-11T07:39:10.504Z,100942.07
2023-01-11T07:44:17.905Z,100938.39
2023-01-11T07:49:25.103Z,100937.66
2023-01-11T07:54:32.820Z,100928.98
2023-01-11T07:59:40.067Z,100936.73
2023-01-11T08:04:48.523Z,100938.52
2023-01-11T08:09:55.753Z,100937.27
2023-01-11T08:15:03.405Z,100938.89
2023-01-11T08:20:13.781Z,100942.01
2023-01-11T08:25:21.555Z,100936.27
2023-01-11T08:30:29.476Z,100931.40
2023-01-11T08:35:40.622Z,100931.08
2023-01-11T08:40:49.153Z,100931.36
2023-01-11T08:45:56.380Z,100927.57
2023-01-11T08:51:03.750Z,100922.86
2023-01-11T08:56:11.643Z,100916.52
2023-01-11T09:01:19.013Z,100911.97
2023-01-11T09:06:26.420Z,100910.52
2023-01-11T09:11:51.534Z,100911.00
2023-01-11T09:17:00.281Z,100906.88
2023-01-11T09:22:07.681Z,100901.73
2023-01-11T09:27:15.127Z,100894.23
2023-01-11T09:32:22.767Z,100884.35
2023-01-11T09:37:30.017Z,100883.20
2023-01-11T09:42:40.829Z,100881.55
2023-01-11T09:47:53.337Z,100868.13
2023-01-11T09:53:04.901Z,100863.52
2023-01-11T09:58:36.189Z,100854.94
2023-01-11T10:04:22.069Z,100846.64
2023-01-11T10:18:41.726Z,100829.85
2023-01-11T10:20:47.915Z,100818.55
2023-01-11T10:26:02.053Z,100808.95
2023-01-11T10:31:30.113Z,100804.45
2023-01-11T10:37:05.026Z,100801.98
2023-01-11T10:42:20.040Z,100798.06
2023-01-11T10:47:33.027Z,100795.02
2023-01-11T10:52:44.562Z,100789.83
2023-01-11T10:58:07.087Z,100781.60
2023-01-11T11:03:31.868Z,100775.20
2023-01-11T11:08:48.491Z,100769.39
2023-01-11T11:14:03.468Z,100761.61
2023-01-11T11:19:16.418Z,100753.95
2023-01-11T11:24:32.622Z,100739.98
2023-01-11T11:29:51.116Z,100729.67
2023-01-11T11:34:59.044Z,100724.17
2023-01-11T11:40:05.293Z,100717.34
2023-01-11T11:45:20.122Z,100708.51
2023-01-11T11:50:44.206Z,100692.16
2023-01-11T11:55:54.915Z,100686.89
2023-01-11T12:01:07.065Z,100684.05
2023-01-11T12:06:25.109Z,100685.89
2023-01-11T12:11:35.571Z,100680.88
2023-01-11T12:16:45.639Z,100671.14
2023-01-11T12:21:54.306Z,100657.16
2023-01-11T12:27:12.887Z,100643.70
2023-01-11T12:32:47.134Z,100641.06
2023-01-11T12:38:15.427Z,100637.33
2023-01-11T12:43:38.911Z,100629.24
2023-01-11T12:49:08.665Z,100625.89
2023-01-11T12:54:38.971Z,100621.23
2023-01-11T13:00:03.583Z,100616.83
2023-01-11T13:05:23.690Z,100611.03
2023-01-11T13:10:52.319Z,100596.52
2023-01-11T13:16:00.228Z,100588.92
2023-01-11T13:21:19.650Z,100589.77
2023-01-11T13:26:30.761Z,100581.27
2023-01-11T13:31:38.830Z,100579.23
2023-01-11T13:36:47.104Z,100567.50
2023-01-11T13:41:58.281Z,100567.61
2023-01-11T13:47:11.468Z,100560.61
2023-01-11T13:52:21.506Z,100556.25
2023-01-11T13:57:35.552Z,100557.66
2023-01-11T14:02:49.453Z,100559.32
2023-01-11T14:08:13.449Z,100548.12
2023-01-11T14:14:05.747Z,100548.23
2023-01-11T14:19:23.740Z,100538.20
2023-01-11T14:24:41.627Z,100535.48
2023-01-11T14:30:14.895Z,100534.63
2023-01-11T14:35:56.340Z,100528.30
2023-01-11T14:41:21.936Z,100525.02
2023-01-11T14:47:11.802Z,100521.50
2023-01-11T14:52:31.143Z,100510.20
2023-01-11T14:58:01.303Z,100509.40
2023-01-11T15:03:47.022Z,100502.65
2023-01-11T15:08:57.023Z,100498.63
2023-01-11T15:14:23.718Z,100493.91
2023-01-11T15:19:34.300Z,100490.75
2023-01-11T15:24:45.339Z,100493.23
2023-01-11T15:29:57.956Z,100488.67
2023-01-11T15:35:37.475Z,100485.87
2023-01-11T15:40:47.610Z,100484.80
2023-01-11T15:46:58.919Z,100476.98
2023-01-11T15:52:23.795Z,100480.73
2023-01-11T15:58:06.221Z,100471.30
2023-01-11T16:03:54.735Z,100460.31
2023-01-11T16:09:13.869Z,100458.88
2023-01-11T16:14:52.169Z,100457.75
2023-01-11T16:20:19.968Z,100465.31
2023-01-11T16:25:31.180Z,100469.30
2023-01-11T16:30:39.853Z,100469.11
2023-01-11T16:35:50.365Z,100461.38
2023-01-11T16:40:59.410Z,100458.86
2023-01-11T16:46:06.959Z,100453.52
2023-01-11T16:51:17.165Z,100458.83
2023-01-11T16:56:25.775Z,100456.83
2023-01-11T17:01:51.553Z,100453.98
2023-01-11T17:07:13.901Z,100448.63
2023-01-11T17:12:24.309Z,100452.06
2023-01-11T17:17:37.805Z,100453.14
2023-01-11T17:22:47.028Z,100447.52
2023-01-11T17:28:01.635Z,100444.77
2023-01-11T17:33:26.245Z,100443.86
2023-01-11T17:38:34.314Z,100450.24
2023-01-11T17:43:59.105Z,100445.26
2023-01-11T17:49:06.630Z,100446.27
2023-01-11T17:54:22.362Z,100440.86
2023-01-11T17:59:31.443Z,100446.17
2023-01-11T18:04:38.868Z,100447.83
2023-01-11T18:09:52.008Z,100441.19
2023-01-11T18:15:01.222Z,100438.23
2023-01-11T18:20:40.219Z,100441.42
2023-01-11T18:25:48.129Z,100436.33
2023-01-11T18:31:02.133Z,100436.16
2023-01-11T18:36:22.035Z,100432.04
2023-01-11T18:41:47.077Z,100430.47
2023-01-11T18:46:54.485Z,100432.27
2023-01-11T18:52:01.786Z,100431.89
2023-01-11T18:57:09.442Z,100432.04
2023-01-11T19:02:28.921Z,100438.40
2023-01-11T19:07:36.343Z,100434.98
2023-01-11T19:12:44.777Z,100431.03
2023-01-11T19:17:52.107Z,100428.52
2023-01-11T19:22:59.562Z,100432.69
2023-01-11T19:28:07.269Z,100431.23
2023-01-11T19:33:14.780Z,100429.27
2023-01-11T19:39:21.379Z,100427.08
2023-01-11T19:44:25.081Z,100427.20
2023-01-11T19:49:32.768Z,100423.98
2023-01-11T19:54:39.872Z,100422.71
2023-01-11T19:59:47.828Z,100423.25
2023-01-11T20:04:55.093Z,100421.94
2023-01-11T20:10:02.405Z,100423.81
2023-01-11T20:15:11.539Z,100420.83
2023-01-11T20:20:19.380Z,100419.65
2023-01-11T20:25:27.432Z,100424.09
2023-01-11T20:30:34.463Z,100422.95
2023-01-11T20:35:44.903Z,100421.79
2023-01-11T20:40:52.048Z,100425.81
2023-01-11T20:46:00.241Z,100424.47
2023-01-11T20:51:10.590Z,100421.95
2023-01-11T20:56:18.207Z,100423.23
2023-01-11T21:01:26.475Z,100424.02
2023-01-11T21:06:35.787Z,100424.98
2023-01-11T21:11:44.247Z,100425.35
2023-01-11T21:16:55.014Z,100429.36
2023-01-11T21:22:07.590Z,100433.75
2023-01-11T21:27:17.811Z,100438.35
2023-01-11T21:32:25.953Z,100439.90
2023-01-11T21:37:33.712Z,100438.02
2023-01-11T21:42:40.820Z,100439.83
2023-01-11T21:47:48.109Z,100440.71
2023-01-11T21:52:57.593Z,100444.35
2023-01-11T21:58:05.000Z,100450.41
2023-01-11T22:03:14.725Z,100448.30
2023-01-11T22:08:21.943Z,100450.28
2023-01-11T22:13:29.226Z,100454.59
2023-01-11T22:18:37.260Z,100456.67
2023-01-11T22:23:43.043Z,100465.83
2023-01-11T22:29:10.505Z,100463.63
2023-01-11T22:34:18.664Z,100460.92
2023-01-11T22:39:24.921Z,100480.04
2023-01-11T22:44:32.194Z,100489.37
2023-01-11T22:49:39.605Z,100488.23
2023-01-11T22:54:46.719Z,100483.05
2023-01-11T22:59:54.125Z,100476.19
2023-01-11T23:05:01.321Z,100479.67
2023-01-11T23:10:13.807Z,100484.83
2023-01-11T23:15:21.269Z,100490.13
2023-01-11T23:20:28.510Z,100491.82
2023-01-11T23:25:35.827Z,100497.45
2023-01-11T23:30:43.021Z,100501.03
2023-01-11T23:35:57.935Z,100505.42
2023-01-11T23:41:27.610Z,100509.44
2023-01-11T23:46:52.419Z,100508.39
2023-01-11T23:52:00.895Z,100510.86
2023-01-11T23:57:09.404Z,100511.91
